Terminal Aerodrome Forecast
Issued by NWS

Home | Current Version | Previous Version | Text Only | Print | Product List | Glossary On
Versions: 1 2 3 4 5 6 7 8 9 10 11 12 13
000
FTUS44 KTSA 301700
TAFMLC
TAF
KMLC 301739Z 3018/3118 15005KT 3SM -RA BKN022
      TEMPO 3018/3022 1SM +TSRA BKN012CB
     FM302200 13007KT 3SM -RA OVC035
     FM310600 05005KT 4SM BR OVC015=

USA.gov is the U.S. government's official web portal to all federal, state and local government web resources and services.